KMMT

Mc Entire Jngb Airport

Eastover, South Carolina, USA
METAR KMMT 150256Z AUTO 20005KT 10SM CLR 25/22 A3004 RMK AO2 SLP172 T02460223 52017 $
Observed Flight Rules
Aug-15 @ 02:56 UTC (40 minutes ago) Visual Flight Rules
Wind Visibility Clouds
200° at 5 knots 10 miles
  • Clear skies
Temperatures Readings
Current 25°C / 77°F
Dewpoint 22°C / 72°F
Humidity 83%
Altimeter 30.04" Hg
Pressure 1017.2 hPa
Elevation 77
METAR KMMT 150256Z AUTO 20005KT 10SM CLR 25/22 A3004 RMK AO2 SLP172 T02460223 52017 $
Observed Flight Rules
Aug-15 @ 02:56 UTC
(40 minutes ago)
VFR
Wind Visibility
200° at 5 knots 10 miles
Clouds
  • Clear skies
Temperature Dewpoint
25°C / 77°F 22°C / 72°F
Humidity Altimeter Pressure
83% 30.04" Hg 1017.2 hPa